Terminal Aerodrome Forecast
Issued by NWS

Home | Current Version | Previous Version | Text Only | Print | Product List | Glossary On
Versions: 1 2 3 4 5 6 7 8 9 10 11 12 13
000
FTUS46 KPDT 301700
TAFDLS
TAF
KDLS 301735Z 3018/3118 29005KT P6SM SCT200
     FM302000 32010KT P6SM SCT200
     FM310000 31013KT P6SM FEW080 SCT200
     FM310900 30011KT P6SM -SHRA SCT060 BKN090
     FM311600 30014G20KT P6SM VCSH SCT090=

USA.gov is the U.S. government's official web portal to all federal, state and local government web resources and services.